BTK231 WADD-WAAA
Flight info
| Callsign | BTK231 |
|---|---|
| Flight time | 1h 1m |
| Altitude | 37000 |
| Route | PEDET W41 LIPOT |
| Aircraft | B738/M-SCB1D1A1R2/LB1 |
Departure
| Time | 2026-04-21 20:03 |
|---|---|
| Airport | Denpasar I Gusti Ngurah Rai International Airport (WADD) |
Arrival
| Time | 2026-04-21 21:05 |
|---|---|
| Airport | Sultan Hasanuddin International Airport (WAAA) |
| Time | Latitude | Longitude | Altitude | Speed | Heading |
|---|---|---|---|---|---|
| 2026-04-21 19:37 | -8.74560 | 115.16472 | 31 ft | 0 kts | 358° |
| 2026-04-21 19:55 | -8.74580 | 115.16473 | 32 ft | 1 kts | 358° |
| 2026-04-21 19:55 | -8.74604 | 115.16474 | 32 ft | 4 kts | 358° |
| 2026-04-21 19:56 | -8.74631 | 115.16475 | 32 ft | 4 kts | 358° |
| 2026-04-21 19:56 | -8.74656 | 115.16476 | 32 ft | 4 kts | 343° |
| 2026-04-21 19:56 | -8.74678 | 115.16489 | 30 ft | 4 kts | 304° |
| 2026-04-21 19:56 | -8.74688 | 115.16513 | 31 ft | 4 kts | 273° |
| 2026-04-21 19:57 | -8.74688 | 115.16522 | 31 ft | 0 kts | 268° |
| 2026-04-21 19:59 | -8.74688 | 115.16513 | 31 ft | 3 kts | 268° |
| 2026-04-21 19:59 | -8.74690 | 115.16482 | 31 ft | 6 kts | 268° |
| 2026-04-21 19:59 | -8.74692 | 115.16427 | 31 ft | 9 kts | 268° |
| 2026-04-21 19:59 | -8.74695 | 115.16350 | 32 ft | 12 kts | 268° |
| 2026-04-21 20:00 | -8.74699 | 115.16254 | 32 ft | 15 kts | 268° |
| 2026-04-21 20:00 | -8.74703 | 115.16140 | 32 ft | 17 kts | 268° |
| 2026-04-21 20:00 | -8.74708 | 115.16014 | 32 ft | 19 kts | 267° |
| 2026-04-21 20:00 | -8.74714 | 115.15871 | 32 ft | 21 kts | 267° |
| 2026-04-21 20:01 | -8.74721 | 115.15715 | 31 ft | 23 kts | 268° |
| 2026-04-21 20:01 | -8.74727 | 115.15550 | 30 ft | 25 kts | 268° |
| 2026-04-21 20:01 | -8.74744 | 115.15415 | 30 ft | 16 kts | 233° |
| 2026-04-21 20:01 | -8.74849 | 115.15392 | 28 ft | 16 kts | 180° |
| 2026-04-21 20:02 | -8.74898 | 115.15423 | 28 ft | 9 kts | 92° |
| 2026-04-21 20:02 | -8.74897 | 115.15440 | 28 ft | 1 kts | 86° |
| 2026-04-21 20:02 | -8.74896 | 115.15448 | 28 ft | 3 kts | 86° |
| 2026-04-21 20:02 | -8.74887 | 115.15653 | 27 ft | 67 kts | 88° |
| 2026-04-21 20:03 | -8.74859 | 115.16371 | 27 ft | 138 kts | 88° |
| 2026-04-21 20:03 | -8.74806 | 115.17508 | 243 ft | 178 kts | 87° |
| 2026-04-21 20:03 | -8.74767 | 115.18847 | 831 ft | 202 kts | 89° |
| 2026-04-21 20:03 | -8.74740 | 115.20273 | 1725 ft | 199 kts | 88° |
| 2026-04-21 20:04 | -8.74677 | 115.21723 | 2255 ft | 219 kts | 86° |
| 2026-04-21 20:04 | -8.74600 | 115.23343 | 2622 ft | 237 kts | 86° |
| 2026-04-21 20:04 | -8.74524 | 115.25006 | 3357 ft | 239 kts | 86° |
| 2026-04-21 20:04 | -8.74448 | 115.26699 | 3742 ft | 259 kts | 86° |
| 2026-04-21 20:05 | -8.74368 | 115.28538 | 4555 ft | 264 kts | 86° |
| 2026-04-21 20:05 | -8.74205 | 115.30234 | 5347 ft | 266 kts | 73° |
| 2026-04-21 20:05 | -8.73474 | 115.32045 | 6265 ft | 267 kts | 64° |
| 2026-04-21 20:05 | -8.72678 | 115.33750 | 7106 ft | 270 kts | 64° |
| 2026-04-21 20:06 | -8.71878 | 115.35452 | 7871 ft | 274 kts | 62° |
| 2026-04-21 20:06 | -8.70746 | 115.37010 | 8622 ft | 278 kts | 47° |
| 2026-04-21 20:06 | -8.69397 | 115.38428 | 9391 ft | 281 kts | 45° |
| 2026-04-21 20:06 | -8.68010 | 115.39853 | 9861 ft | 284 kts | 45° |
| 2026-04-21 20:07 | -8.66624 | 115.41281 | 10338 ft | 292 kts | 46° |
| 2026-04-21 20:07 | -8.65146 | 115.42817 | 10507 ft | 316 kts | 46° |
| 2026-04-21 20:07 | -8.63566 | 115.44474 | 10710 ft | 336 kts | 46° |
| 2026-04-21 20:07 | -8.61923 | 115.46206 | 11177 ft | 345 kts | 46° |
| 2026-04-21 20:08 | -8.60277 | 115.47951 | 11820 ft | 349 kts | 47° |
| 2026-04-21 20:08 | -8.58582 | 115.49753 | 12518 ft | 351 kts | 47° |
| 2026-04-21 20:08 | -8.56914 | 115.51529 | 13153 ft | 354 kts | 47° |
| 2026-04-21 20:08 | -8.55206 | 115.53352 | 13760 ft | 358 kts | 47° |
| 2026-04-21 20:09 | -8.53488 | 115.55186 | 14368 ft | 361 kts | 47° |
| 2026-04-21 20:09 | -8.51755 | 115.57038 | 14958 ft | 365 kts | 47° |
| 2026-04-21 20:09 | -8.50001 | 115.58912 | 15538 ft | 368 kts | 47° |
| 2026-04-21 20:09 | -8.48233 | 115.60800 | 16082 ft | 372 kts | 47° |
| 2026-04-21 20:10 | -8.46441 | 115.62714 | 16651 ft | 375 kts | 47° |
| 2026-04-21 20:10 | -8.44647 | 115.64632 | 17192 ft | 378 kts | 47° |
| 2026-04-21 20:10 | -8.42826 | 115.66576 | 17711 ft | 381 kts | 47° |
| 2026-04-21 20:10 | -8.40994 | 115.68533 | 18225 ft | 384 kts | 47° |
| 2026-04-21 20:11 | -8.39169 | 115.70482 | 18690 ft | 388 kts | 47° |
| 2026-04-21 20:11 | -8.37303 | 115.72475 | 19139 ft | 392 kts | 47° |
| 2026-04-21 20:11 | -8.35417 | 115.74489 | 19571 ft | 396 kts | 47° |
| 2026-04-21 20:11 | -8.33513 | 115.76521 | 19992 ft | 400 kts | 47° |
| 2026-04-21 20:12 | -8.31589 | 115.78575 | 20396 ft | 404 kts | 47° |
| 2026-04-21 20:12 | -8.29647 | 115.80645 | 20787 ft | 407 kts | 47° |
| 2026-04-21 20:12 | -8.27696 | 115.82727 | 21184 ft | 410 kts | 47° |
| 2026-04-21 20:12 | -8.25720 | 115.84834 | 21562 ft | 414 kts | 47° |
| 2026-04-21 20:13 | -8.23733 | 115.86954 | 21917 ft | 417 kts | 47° |
| 2026-04-21 20:13 | -8.21755 | 115.89064 | 22259 ft | 420 kts | 47° |
| 2026-04-21 20:13 | -8.19737 | 115.91216 | 22606 ft | 423 kts | 47° |
| 2026-04-21 20:13 | -8.17706 | 115.93381 | 22936 ft | 426 kts | 47° |
| 2026-04-21 20:14 | -8.15658 | 115.95564 | 23264 ft | 429 kts | 47° |
| 2026-04-21 20:14 | -8.13595 | 115.97762 | 23570 ft | 432 kts | 47° |
| 2026-04-21 20:14 | -8.11528 | 115.99964 | 23880 ft | 435 kts | 47° |
| 2026-04-21 20:14 | -8.09516 | 116.02108 | 24165 ft | 438 kts | 47° |
| 2026-04-21 20:15 | -8.07413 | 116.04348 | 24461 ft | 440 kts | 47° |
| 2026-04-21 20:15 | -8.05393 | 116.06499 | 24777 ft | 441 kts | 47° |
| 2026-04-21 20:15 | -8.03278 | 116.08751 | 25071 ft | 442 kts | 47° |
| 2026-04-21 20:15 | -8.01150 | 116.11016 | 25359 ft | 444 kts | 47° |
| 2026-04-21 20:16 | -7.99020 | 116.13283 | 25650 ft | 446 kts | 47° |
| 2026-04-21 20:16 | -7.96909 | 116.15529 | 25927 ft | 448 kts | 47° |
| 2026-04-21 20:16 | -7.94763 | 116.17814 | 26204 ft | 449 kts | 47° |
| 2026-04-21 20:16 | -7.93297 | 116.19362 | 26380 ft | 451 kts | 46° |
| 2026-04-21 20:17 | -7.91790 | 116.20924 | 26560 ft | 452 kts | 46° |
| 2026-04-21 20:17 | -7.89600 | 116.23162 | 26813 ft | 453 kts | 45° |
| 2026-04-21 20:18 | -7.88132 | 116.24652 | 26976 ft | 454 kts | 45° |
| 2026-04-21 20:18 | -7.85236 | 116.27591 | 27303 ft | 456 kts | 45° |
| 2026-04-21 20:18 | -7.83133 | 116.29729 | 27530 ft | 458 kts | 45° |
| 2026-04-21 20:18 | -7.82037 | 116.30845 | 27667 ft | 458 kts | 45° |
| 2026-04-21 20:19 | -7.79796 | 116.33129 | 27926 ft | 459 kts | 45° |
| 2026-04-21 20:19 | -7.78644 | 116.34305 | 28029 ft | 460 kts | 45° |
| 2026-04-21 20:19 | -7.76392 | 116.36606 | 28248 ft | 461 kts | 45° |
| 2026-04-21 20:19 | -7.74238 | 116.38806 | 28483 ft | 462 kts | 45° |
| 2026-04-21 20:20 | -7.71975 | 116.41119 | 28706 ft | 463 kts | 45° |
| 2026-04-21 20:20 | -7.69704 | 116.43441 | 28900 ft | 465 kts | 45° |
| 2026-04-21 20:20 | -7.67455 | 116.45739 | 29092 ft | 467 kts | 45° |
| 2026-04-21 20:20 | -7.65172 | 116.48071 | 29291 ft | 468 kts | 45° |
| 2026-04-21 20:21 | -7.62880 | 116.50412 | 29514 ft | 468 kts | 45° |
| 2026-04-21 20:21 | -7.60587 | 116.52754 | 29718 ft | 469 kts | 45° |
| 2026-04-21 20:21 | -7.58289 | 116.55100 | 29884 ft | 471 kts | 45° |
| 2026-04-21 20:21 | -7.55978 | 116.57459 | 30056 ft | 472 kts | 45° |
| 2026-04-21 20:22 | -7.53665 | 116.59821 | 30269 ft | 472 kts | 45° |
| 2026-04-21 20:22 | -7.49086 | 116.64493 | 30863 ft | 469 kts | 45° |
| 2026-04-21 20:22 | -7.46792 | 116.66833 | 31099 ft | 469 kts | 45° |
| 2026-04-21 20:23 | -7.44497 | 116.69173 | 31308 ft | 470 kts | 45° |
| 2026-04-21 20:23 | -7.42199 | 116.71518 | 31565 ft | 469 kts | 45° |
| 2026-04-21 20:23 | -7.39901 | 116.73862 | 31864 ft | 468 kts | 45° |
| 2026-04-21 20:23 | -7.37621 | 116.76186 | 32139 ft | 467 kts | 45° |
| 2026-04-21 20:24 | -7.35336 | 116.78516 | 32384 ft | 467 kts | 45° |
| 2026-04-21 20:24 | -7.33056 | 116.80839 | 32654 ft | 466 kts | 45° |
| 2026-04-21 20:24 | -7.30811 | 116.83128 | 32930 ft | 465 kts | 45° |
| 2026-04-21 20:24 | -7.28509 | 116.85474 | 33209 ft | 464 kts | 45° |
| 2026-04-21 20:25 | -7.26239 | 116.87787 | 33482 ft | 463 kts | 45° |
| 2026-04-21 20:25 | -7.23998 | 116.90070 | 33713 ft | 463 kts | 45° |
| 2026-04-21 20:25 | -7.21746 | 116.92362 | 33917 ft | 464 kts | 45° |
| 2026-04-21 20:25 | -7.19470 | 116.94679 | 34181 ft | 463 kts | 45° |
| 2026-04-21 20:26 | -7.17204 | 116.96986 | 34476 ft | 462 kts | 45° |
| 2026-04-21 20:26 | -7.14949 | 116.99281 | 34701 ft | 462 kts | 45° |
| 2026-04-21 20:26 | -7.12689 | 117.01581 | 34943 ft | 461 kts | 45° |
| 2026-04-21 20:26 | -7.10428 | 117.03882 | 35184 ft | 461 kts | 45° |
| 2026-04-21 20:27 | -7.08173 | 117.06178 | 35411 ft | 461 kts | 45° |
| 2026-04-21 20:27 | -7.05914 | 117.08476 | 35654 ft | 460 kts | 45° |
| 2026-04-21 20:27 | -7.03665 | 117.10762 | 35866 ft | 460 kts | 45° |
| 2026-04-21 20:27 | -7.01443 | 117.13023 | 36046 ft | 461 kts | 45° |
| 2026-04-21 20:28 | -6.99190 | 117.15314 | 36259 ft | 460 kts | 45° |
| 2026-04-21 20:28 | -6.96934 | 117.17608 | 36442 ft | 460 kts | 45° |
| 2026-04-21 20:28 | -6.94679 | 117.19900 | 36588 ft | 462 kts | 45° |
| 2026-04-21 20:28 | -6.92421 | 117.22196 | 36840 ft | 459 kts | 45° |
| 2026-04-21 20:29 | -6.87928 | 117.26761 | 36849 ft | 455 kts | 45° |
| 2026-04-21 20:29 | -6.83514 | 117.31248 | 36844 ft | 448 kts | 45° |
| 2026-04-21 20:30 | -6.79154 | 117.35679 | 36857 ft | 448 kts | 45° |
| 2026-04-21 20:30 | -6.74761 | 117.40139 | 36859 ft | 449 kts | 45° |
| 2026-04-21 20:31 | -6.70357 | 117.44609 | 36854 ft | 450 kts | 45° |
| 2026-04-21 20:31 | -6.65949 | 117.49084 | 36851 ft | 450 kts | 45° |
| 2026-04-21 20:32 | -6.61537 | 117.53560 | 36856 ft | 450 kts | 45° |
| 2026-04-21 20:32 | -6.57117 | 117.58043 | 36854 ft | 451 kts | 45° |
| 2026-04-21 20:33 | -6.52695 | 117.62528 | 36850 ft | 451 kts | 45° |
| 2026-04-21 20:33 | -6.48300 | 117.66983 | 36853 ft | 451 kts | 45° |
| 2026-04-21 20:34 | -6.43875 | 117.71467 | 36855 ft | 451 kts | 45° |
| 2026-04-21 20:34 | -6.39443 | 117.75959 | 36851 ft | 451 kts | 45° |
| 2026-04-21 20:35 | -6.35038 | 117.80421 | 36850 ft | 451 kts | 45° |
| 2026-04-21 20:35 | -6.30620 | 117.84896 | 36851 ft | 451 kts | 45° |
| 2026-04-21 20:36 | -6.26203 | 117.89368 | 36853 ft | 450 kts | 45° |
| 2026-04-21 20:36 | -6.21922 | 117.93700 | 36847 ft | 449 kts | 45° |
| 2026-04-21 20:37 | -6.17516 | 117.98160 | 36852 ft | 448 kts | 45° |
| 2026-04-21 20:37 | -6.13153 | 118.02575 | 36852 ft | 448 kts | 45° |
| 2026-04-21 20:38 | -6.08758 | 118.07020 | 36852 ft | 447 kts | 45° |
| 2026-04-21 20:38 | -6.04383 | 118.11445 | 36850 ft | 447 kts | 45° |
| 2026-04-21 20:39 | -6.00001 | 118.15877 | 36784 ft | 449 kts | 45° |
| 2026-04-21 20:39 | -5.97785 | 118.18115 | 36510 ft | 453 kts | 45° |
| 2026-04-21 20:39 | -5.95594 | 118.20354 | 36270 ft | 452 kts | 45° |
| 2026-04-21 20:40 | -5.94132 | 118.21836 | 36099 ft | 450 kts | 44° |
| 2026-04-21 20:40 | -5.91165 | 118.24822 | 35760 ft | 454 kts | 45° |
| 2026-04-21 20:40 | -5.89671 | 118.26297 | 35610 ft | 457 kts | 44° |
| 2026-04-21 20:40 | -5.87386 | 118.28556 | 35377 ft | 461 kts | 45° |
| 2026-04-21 20:41 | -5.85120 | 118.30852 | 35128 ft | 465 kts | 45° |
| 2026-04-21 20:41 | -5.82842 | 118.33177 | 34878 ft | 463 kts | 45° |
| 2026-04-21 20:41 | -5.80595 | 118.35467 | 34621 ft | 458 kts | 45° |
| 2026-04-21 20:41 | -5.78368 | 118.37728 | 34245 ft | 451 kts | 45° |
| 2026-04-21 20:42 | -5.76158 | 118.39964 | 33591 ft | 451 kts | 45° |
| 2026-04-21 20:42 | -5.73939 | 118.42203 | 32830 ft | 454 kts | 45° |
| 2026-04-21 20:42 | -5.71700 | 118.44464 | 32011 ft | 457 kts | 45° |
| 2026-04-21 20:42 | -5.69454 | 118.46732 | 31213 ft | 459 kts | 45° |
| 2026-04-21 20:43 | -5.67224 | 118.48982 | 30530 ft | 459 kts | 45° |
| 2026-04-21 20:43 | -5.64987 | 118.51248 | 30054 ft | 453 kts | 46° |
| 2026-04-21 20:43 | -5.62832 | 118.53525 | 29598 ft | 447 kts | 47° |
| 2026-04-21 20:43 | -5.60724 | 118.55810 | 29020 ft | 443 kts | 47° |
| 2026-04-21 20:44 | -5.58638 | 118.58087 | 28402 ft | 441 kts | 47° |
| 2026-04-21 20:44 | -5.56562 | 118.60349 | 27810 ft | 439 kts | 47° |
| 2026-04-21 20:44 | -5.54494 | 118.62591 | 27242 ft | 435 kts | 47° |
| 2026-04-21 20:44 | -5.52461 | 118.64785 | 26664 ft | 432 kts | 47° |
| 2026-04-21 20:45 | -5.50421 | 118.66984 | 26098 ft | 430 kts | 47° |
| 2026-04-21 20:45 | -5.48385 | 118.69176 | 25556 ft | 426 kts | 47° |
| 2026-04-21 20:45 | -5.46372 | 118.71344 | 24994 ft | 423 kts | 47° |
| 2026-04-21 20:45 | -5.44369 | 118.73501 | 24453 ft | 421 kts | 47° |
| 2026-04-21 20:46 | -5.42340 | 118.75592 | 23903 ft | 418 kts | 40° |
| 2026-04-21 20:46 | -5.39993 | 118.77320 | 23358 ft | 415 kts | 34° |
| 2026-04-21 20:46 | -5.37589 | 118.78905 | 22882 ft | 411 kts | 33° |
| 2026-04-21 20:46 | -5.35201 | 118.80445 | 22433 ft | 406 kts | 33° |
| 2026-04-21 20:47 | -5.32843 | 118.81978 | 21942 ft | 402 kts | 33° |
| 2026-04-21 20:47 | -5.30512 | 118.83514 | 21417 ft | 399 kts | 34° |
| 2026-04-21 20:47 | -5.28205 | 118.85054 | 20948 ft | 395 kts | 34° |
| 2026-04-21 20:47 | -5.25929 | 118.86581 | 20469 ft | 392 kts | 34° |
| 2026-04-21 20:48 | -5.23676 | 118.88097 | 19972 ft | 389 kts | 34° |
| 2026-04-21 20:48 | -5.21438 | 118.89604 | 19491 ft | 385 kts | 34° |
| 2026-04-21 20:48 | -5.19222 | 118.91095 | 19022 ft | 382 kts | 34° |
| 2026-04-21 20:48 | -5.17053 | 118.92553 | 18546 ft | 379 kts | 34° |
| 2026-04-21 20:49 | -5.14820 | 118.94000 | 18071 ft | 376 kts | 28° |
| 2026-04-21 20:49 | -5.12384 | 118.94814 | 17576 ft | 375 kts | 9° |
| 2026-04-21 20:49 | -5.09781 | 118.94928 | 17116 ft | 373 kts | 1° |
| 2026-04-21 20:49 | -5.07186 | 118.94881 | 16621 ft | 371 kts | 0° |
| 2026-04-21 20:50 | -5.04601 | 118.94846 | 16108 ft | 370 kts | 1° |
| 2026-04-21 20:50 | -5.02038 | 118.94832 | 15622 ft | 368 kts | 1° |
| 2026-04-21 20:50 | -4.99489 | 118.94829 | 15163 ft | 365 kts | 1° |
| 2026-04-21 20:50 | -4.96984 | 118.94830 | 14703 ft | 362 kts | 1° |
| 2026-04-21 20:51 | -4.94470 | 118.94832 | 14224 ft | 360 kts | 1° |
| 2026-04-21 20:51 | -4.91959 | 118.94832 | 13741 ft | 358 kts | 1° |
| 2026-04-21 20:51 | -4.89469 | 118.94833 | 13280 ft | 356 kts | 1° |
| 2026-04-21 20:51 | -4.87005 | 118.94833 | 12827 ft | 354 kts | 1° |
| 2026-04-21 20:52 | -4.84548 | 118.94833 | 12362 ft | 352 kts | 1° |
| 2026-04-21 20:52 | -4.82100 | 118.94833 | 11906 ft | 350 kts | 2° |
| 2026-04-21 20:52 | -4.79723 | 118.95196 | 11379 ft | 346 kts | 22° |
| 2026-04-21 20:52 | -4.77718 | 118.96431 | 10893 ft | 342 kts | 44° |
| 2026-04-21 20:53 | -4.76307 | 118.98131 | 10724 ft | 331 kts | 60° |
| 2026-04-21 20:53 | -4.75394 | 119.00181 | 10559 ft | 320 kts | 70° |
| 2026-04-21 20:53 | -4.74658 | 119.02256 | 10414 ft | 311 kts | 71° |
| 2026-04-21 20:53 | -4.73969 | 119.04273 | 10269 ft | 301 kts | 71° |
| 2026-04-21 20:54 | -4.73303 | 119.06203 | 10125 ft | 285 kts | 71° |
| 2026-04-21 20:54 | -4.72665 | 119.08026 | 10004 ft | 269 kts | 70° |
| 2026-04-21 20:54 | -4.72048 | 119.09773 | 9811 ft | 264 kts | 70° |
| 2026-04-21 20:54 | -4.71435 | 119.11497 | 9554 ft | 262 kts | 70° |
| 2026-04-21 20:55 | -4.70817 | 119.13227 | 9295 ft | 266 kts | 70° |
| 2026-04-21 20:55 | -4.70185 | 119.14988 | 9025 ft | 272 kts | 70° |
| 2026-04-21 20:55 | -4.69537 | 119.16795 | 8735 ft | 278 kts | 70° |
| 2026-04-21 20:55 | -4.68881 | 119.18627 | 8431 ft | 279 kts | 71° |
| 2026-04-21 20:56 | -4.68622 | 119.20540 | 8100 ft | 279 kts | 97° |
| 2026-04-21 20:56 | -4.69268 | 119.22327 | 7826 ft | 278 kts | 122° |
| 2026-04-21 20:56 | -4.70589 | 119.23727 | 7537 ft | 278 kts | 143° |
| 2026-04-21 20:56 | -4.72198 | 119.24832 | 7247 ft | 276 kts | 146° |
| 2026-04-21 20:57 | -4.73793 | 119.25864 | 6950 ft | 276 kts | 146° |
| 2026-04-21 20:57 | -4.75406 | 119.26906 | 6655 ft | 274 kts | 146° |
| 2026-04-21 20:57 | -4.77005 | 119.27944 | 6350 ft | 273 kts | 146° |
| 2026-04-21 20:57 | -4.78591 | 119.28981 | 6066 ft | 271 kts | 146° |
| 2026-04-21 20:58 | -4.80171 | 119.30022 | 5779 ft | 270 kts | 146° |
| 2026-04-21 20:58 | -4.81740 | 119.31060 | 5491 ft | 269 kts | 145° |
| 2026-04-21 20:58 | -4.83301 | 119.32094 | 5207 ft | 268 kts | 145° |
| 2026-04-21 20:58 | -4.84855 | 119.33124 | 4921 ft | 267 kts | 145° |
| 2026-04-21 20:59 | -4.86386 | 119.34141 | 4639 ft | 266 kts | 146° |
| 2026-04-21 20:59 | -4.87926 | 119.35163 | 4347 ft | 264 kts | 146° |
| 2026-04-21 20:59 | -4.89451 | 119.36175 | 4091 ft | 262 kts | 145° |
| 2026-04-21 20:59 | -4.90820 | 119.37333 | 4002 ft | 251 kts | 131° |
| 2026-04-21 21:00 | -4.91939 | 119.38641 | 3800 ft | 247 kts | 128° |
| 2026-04-21 21:00 | -4.92999 | 119.39930 | 3717 ft | 238 kts | 129° |
| 2026-04-21 21:00 | -4.94056 | 119.41186 | 3443 ft | 233 kts | 129° |
| 2026-04-21 21:00 | -4.95089 | 119.42398 | 3138 ft | 224 kts | 129° |
| 2026-04-21 21:01 | -4.96078 | 119.43561 | 2838 ft | 212 kts | 129° |
| 2026-04-21 21:01 | -4.97001 | 119.44648 | 2562 ft | 202 kts | 129° |
| 2026-04-21 21:01 | -4.97885 | 119.45686 | 2302 ft | 188 kts | 129° |
| 2026-04-21 21:01 | -4.98698 | 119.46638 | 2070 ft | 172 kts | 130° |
| 2026-04-21 21:02 | -4.99454 | 119.47527 | 1883 ft | 164 kts | 129° |
| 2026-04-21 21:02 | -5.00178 | 119.48381 | 1632 ft | 156 kts | 129° |
| 2026-04-21 21:02 | -5.00860 | 119.49180 | 1427 ft | 150 kts | 130° |
| 2026-04-21 21:02 | -5.01529 | 119.49964 | 1243 ft | 147 kts | 130° |
| 2026-04-21 21:03 | -5.02196 | 119.50750 | 1050 ft | 149 kts | 130° |
| 2026-04-21 21:03 | -5.02876 | 119.51542 | 834 ft | 151 kts | 131° |
| 2026-04-21 21:03 | -5.03570 | 119.52329 | 583 ft | 150 kts | 131° |
| 2026-04-21 21:03 | -5.04226 | 119.53103 | 403 ft | 142 kts | 129° |
| 2026-04-21 21:04 | -5.04871 | 119.53875 | 226 ft | 148 kts | 130° |
| 2026-04-21 21:04 | -5.05543 | 119.54667 | 54 ft | 150 kts | 130° |
| 2026-04-21 21:04 | -5.06154 | 119.55386 | 42 ft | 110 kts | 131° |
| 2026-04-21 21:04 | -5.06511 | 119.55806 | 39 ft | 59 kts | 130° |
| 2026-04-21 21:05 | -5.06726 | 119.56060 | 40 ft | 44 kts | 130° |
| 2026-04-21 21:05 | -5.06822 | 119.56217 | 41 ft | 12 kts | 100° |
| 2026-04-21 21:05 | -5.06880 | 119.56231 | 41 ft | 12 kts | 242° |
| 2026-04-21 21:05 | -5.06835 | 119.56175 | 39 ft | 11 kts | 326° |
| 2026-04-21 21:06 | -5.06778 | 119.56118 | 41 ft | 13 kts | 309° |
| 2026-04-21 21:06 | -5.06714 | 119.56042 | 40 ft | 16 kts | 310° |
| 2026-04-21 21:06 | -5.06643 | 119.55948 | 42 ft | 18 kts | 286° |
| 2026-04-21 21:06 | -5.06714 | 119.55846 | 40 ft | 20 kts | 238° |
| 2026-04-21 21:07 | -5.06666 | 119.55715 | 40 ft | 22 kts | 278° |
| 2026-04-21 21:07 | -5.06773 | 119.55616 | 38 ft | 23 kts | 210° |
| 2026-04-21 21:07 | -5.06922 | 119.55531 | 40 ft | 26 kts | 210° |
| 2026-04-21 21:07 | -5.07081 | 119.55438 | 40 ft | 27 kts | 211° |
| 2026-04-21 21:08 | -5.07238 | 119.55349 | 40 ft | 25 kts | 211° |
| 2026-04-21 21:08 | -5.07382 | 119.55265 | 39 ft | 23 kts | 210° |
| 2026-04-21 21:08 | -5.07519 | 119.55185 | 40 ft | 22 kts | 210° |
| 2026-04-21 21:08 | -5.07615 | 119.55113 | 40 ft | 13 kts | 254° |
| 2026-04-21 21:09 | -5.07588 | 119.55027 | 40 ft | 13 kts | 296° |
| 2026-04-21 21:09 | -5.07592 | 119.54939 | 39 ft | 13 kts | 252° |
| 2026-04-21 21:09 | -5.07656 | 119.54880 | 40 ft | 13 kts | 211° |
| 2026-04-21 21:09 | -5.07730 | 119.54837 | 39 ft | 12 kts | 211° |
| 2026-04-21 21:10 | -5.07802 | 119.54795 | 40 ft | 12 kts | 208° |
| 2026-04-21 21:10 | -5.07844 | 119.54761 | 40 ft | 7 kts | 263° |
| 2026-04-21 21:10 | -5.07821 | 119.54723 | 40 ft | 6 kts | 304° |
| 2026-04-21 21:10 | -5.07814 | 119.54711 | 38 ft | 0 kts | 300° |
| 2026-04-21 21:11 | -5.07811 | 119.54706 | 40 ft | 1 kts | 300° |